Nearby METAR Reports

 

KPVU - Provo Muni, Utah, USA
Distance from station: S 9mi, 15km
Updated: Wed, 29-Jun-2022 6:34pm MDT
Mostly cloudy
Mostly cloudy
 Wind from NNW
Wind: NNW 20 mph , 31 km/h, Gust: 28 mph , 44 km/h
Temperature: 84°F , 29°C
Dew Point: 54°F , 12°C
Humidity: 35%
Barometer: 30.04 inHg , 1017.3 hPa
Clouds: Mostly cloudy
Visibility: 10 miles , 16 km
Cloud details: Partly cloudy 8000 ft
Partly cloudy 12000 ft
Mostly cloudy 20000 ft
2022/06/30 00:34 KPVU 300034Z 34017G24KT 10SM SCT080 SCT120 BKN200 29/12 A3004 RMK AO2 WSHFT 0020 LTG DSNT N AND NE TSB04E33
K36U - Heber/Russ Mcdon, Utah, USA
Distance from station: ENE 17mi, 27km
Updated: Wed, 11-Oct-2017 6:50pm MDT
NOT Current
Clear
Clear
 Wind from SSW
Wind: SSW 10 mph , 17 km/h, Gust: 18 mph , 30 km/h
Temperature: 63°F , 17°C
Dew Point: 16°F , -9°C
Humidity: 16%
Barometer: 29.87 inHg , 1011.5 hPa
Clouds: Clear
Visibility: 10 miles , 16 km
2017/10/12 00:50 K36U 120050Z AUTO 21009G16KT 10SM CLR 17/M09 A2987 RMK AO2
 
KSLC - Salt Lake City, Utah, USA
Distance from station: NNW 33mi, 53km
Updated: Wed, 29-Jun-2022 5:54pm MDT
Mostly cloudy
Mostly cloudy
 Wind from S
Wind: S 10 mph , 17 km/h
Temperature: 91°F , 33°C
Dew Point: 46°F , 8°C
Humidity: 21%
Barometer: 30.00 inHg , 1015.9 hPa
Clouds: Mostly cloudy
Visibility: 10 miles , 16 km
Cloud details: Few Clouds 5500 ft
Few Clouds 12000 ft
Partly cloudy 15000 ft
Mostly cloudy 25000 ft
2022/06/29 23:54 KSLC 292354Z 17009KT 10SM FEW055 FEW120 SCT150 BKN250 33/08 A3000 RMK AO2 LTG DSNT S SLP091 CB DSNT S SH DSNT S T03280083 10344 20311 58009